Time;durP1;ratioP1;P1;durP2;ratioP2;P2;SDS_P1;SDS_P2;PMS_P1;PMS_P2;Temp;Humidity;BMP_temperature;BMP_pressure;BME280_temperature;BME280_humidity;BME280_pressure;Samples;Min_cycle;Max_cycle;Signal;HPM_P1;HPM_P2
2021/09/18 00:00:07;;;;;;;6.43;5.03;;;13.20;95.50;;;;;;5031642;28;20438;-66
2021/09/18 00:02:38;;;;;;;7.47;5.07;;;13.20;95.30;;;;;;5031978;28;20434;-66
2021/09/18 00:05:09;;;;;;;5.60;4.53;;;13.10;95.30;;;;;;5031561;28;20492;-66
2021/09/18 00:07:43;;;;;;;5.10;4.07;;;13.10;95.40;;;;;;5031874;28;20438;-67
2021/09/18 00:10:11;;;;;;;10.13;4.70;;;13.10;95.50;;;;;;5033847;28;20432;-66
2021/09/18 00:12:38;;;;;;;11.13;3.80;;;13.00;95.50;;;;;;5055454;28;20455;-67
2021/09/18 00:15:06;;;;;;;6.50;4.00;;;13.00;95.70;;;;;;5054607;28;20466;-69
2021/09/18 00:17:36;;;;;;;9.07;4.70;;;13.00;95.70;;;;;;5035196;28;21062;-67
2021/09/18 00:20:05;;;;;;;5.23;4.37;;;13.00;95.60;;;;;;5035223;28;20888;-66
2021/09/18 00:22:32;;;;;;;4.70;4.07;;;13.00;95.40;;;;;;5055146;28;20447;-66
2021/09/18 00:25:02;;;;;;;9.53;4.80;;;13.00;95.40;;;;;;5055211;28;20448;-66
2021/09/18 00:27:31;;;;;;;10.23;4.17;;;13.00;95.30;;;;;;5035008;28;20438;-66
2021/09/18 00:30:01;;;;;;;5.07;4.40;;;13.00;95.10;;;;;;5035218;28;21000;-66
2021/09/18 00:32:33;;;;;;;7.60;5.00;;;13.00;94.90;;;;;;5054385;28;20955;-66
2021/09/18 00:35:00;;;;;;;3.60;3.00;;;12.90;94.90;;;;;;5054998;28;20520;-66
2021/09/18 00:37:27;;;;;;;7.80;3.63;;;12.90;94.60;;;;;;5054791;28;20519;-66
2021/09/18 00:39:54;;;;;;;6.97;4.20;;;12.90;94.40;;;;;;5055350;28;20487;-66
2021/09/18 00:42:23;;;;;;;6.13;3.90;;;12.90;94.30;;;;;;5035773;28;20488;-66
2021/09/18 00:44:52;;;;;;;10.57;4.97;;;12.80;94.20;;;;;;5035006;28;20520;-66
2021/09/18 00:47:21;;;;;;;4.17;3.47;;;12.80;94.50;;;;;;5051910;28;20479;-66
2021/09/18 00:49:50;;;;;;;6.67;3.77;;;12.80;94.50;;;;;;5048372;28;20833;-66
2021/09/18 00:52:19;;;;;;;7.63;4.43;;;12.80;94.60;;;;;;5034867;28;20433;-66
2021/09/18 00:54:47;;;;;;;6.80;3.67;;;12.80;94.60;;;;;;5034518;28;20441;-66
2021/09/18 00:57:19;;;;;;;4.80;4.30;;;12.80;94.80;;;;;;5034587;28;20480;-66
2021/09/18 01:00:01;;;;;;;4.63;3.53;;;12.90;94.90;;;;;;5034662;28;20517;-66
2021/09/18 01:02:28;;;;;;;4.43;3.37;;;12.90;95.20;;;;;;5034818;28;20536;-65
2021/09/18 01:04:55;;;;;;;11.50;5.07;;;13.00;95.40;;;;;;5034591;28;20540;-66
2021/09/18 01:07:23;;;;;;;6.90;4.00;;;13.10;95.40;;;;;;5034468;28;20452;-65
2021/09/18 01:09:51;;;;;;;4.90;3.50;;;13.10;95.40;;;;;;5034322;28;20509;-66
2021/09/18 01:12:18;;;;;;;8.73;4.07;;;13.10;95.30;;;;;;5034614;28;20441;-66
2021/09/18 01:14:46;;;;;;;6.53;3.60;;;13.20;95.30;;;;;;5034102;28;20481;-66
2021/09/18 01:17:20;;;;;;;5.80;2.97;;;13.20;95.20;;;;;;5034348;28;20476;-66
2021/09/18 01:19:48;;;;;;;6.10;3.30;;;13.20;95.10;;;;;;5033948;28;20544;-66
2021/09/18 01:22:20;;;;;;;7.23;3.50;;;13.30;95.10;;;;;;5034276;28;20521;-66
2021/09/18 01:24:48;;;;;;;3.73;3.10;;;13.30;95.20;;;;;;5034194;28;20496;-66
2021/09/18 01:27:16;;;;;;;5.30;3.13;;;13.30;95.20;;;;;;5034242;28;20500;-66
2021/09/18 01:29:45;;;;;;;4.07;3.17;;;13.30;95.30;;;;;;5034222;28;20520;-66
2021/09/18 01:32:17;;;;;;;5.20;3.77;;;13.40;95.30;;;;;;5034030;28;20434;-66
2021/09/18 01:34:49;;;;;;;5.50;3.47;;;13.40;95.10;;;;;;5033738;28;20560;-66
2021/09/18 01:37:16;;;;;;;8.10;4.40;;;13.40;95.10;;;;;;5046657;28;20556;-66
2021/09/18 01:39:50;;;;;;;8.93;3.80;;;13.40;95.10;;;;;;5047438;28;20446;-66
2021/09/18 01:42:17;;;;;;;4.47;3.67;;;13.40;94.90;;;;;;5034090;28;20442;-66
2021/09/18 01:44:45;;;;;;;7.90;4.23;;;13.30;94.90;;;;;;5038256;28;20441;-66
2021/09/18 01:47:12;;;;;;;5.57;3.67;;;13.30;95.20;;;;;;5053974;28;20443;-66
2021/09/18 01:49:41;;;;;;;4.73;3.77;;;13.30;95.30;;;;;;5053312;28;20607;-66
2021/09/18 01:52:29;;;;;;;7.17;4.80;;;13.30;95.50;;;;;;5053488;28;20455;-66
2021/09/18 01:54:56;;;;;;;8.03;5.03;;;13.30;95.60;;;;;;5053055;28;20440;-66
2021/09/18 01:57:23;;;;;;;5.57;4.13;;;13.30;95.60;;;;;;5053502;28;20570;-66
2021/09/18 01:59:50;;;;;;;14.53;5.57;;;13.30;96.00;;;;;;5053135;28;20437;-66
2021/09/18 02:02:17;;;;;;;31.13;5.87;;;13.30;96.00;;;;;;5053472;28;20563;-66
2021/09/18 02:04:44;;;;;;;9.53;6.17;;;13.30;95.90;;;;;;5052789;28;20471;-66
2021/09/18 02:07:11;;;;;;;8.27;5.30;;;13.30;96.10;;;;;;5050699;28;20490;-66
2021/09/18 02:09:38;;;;;;;10.80;5.10;;;13.30;96.20;;;;;;5036154;28;20517;-66
2021/09/18 02:12:10;;;;;;;10.87;5.20;;;13.40;96.40;;;;;;5052168;28;20483;-66
2021/09/18 02:14:40;;;;;;;25.07;6.17;;;13.40;96.40;;;;;;5033619;28;20521;-67
2021/09/18 02:17:12;;;;;;;6.13;5.03;;;13.40;96.30;;;;;;5033176;28;20444;-68
2021/09/18 02:19:39;;;;;;;11.37;4.67;;;13.30;96.40;;;;;;5032891;28;20545;-67
2021/09/18 02:22:06;;;;;;;7.77;5.30;;;13.30;96.60;;;;;;5033218;28;20470;-67
2021/09/18 02:24:33;;;;;;;21.57;4.90;;;13.30;96.30;;;;;;5032520;28;20576;-67
2021/09/18 02:27:00;;;;;;;14.00;4.20;;;13.30;96.10;;;;;;5032942;28;20984;-67
2021/09/18 02:29:28;;;;;;;4.20;3.77;;;13.20;96.20;;;;;;5032881;28;20525;-66
2021/09/18 02:31:55;;;;;;;5.50;3.50;;;13.20;96.40;;;;;;5032904;28;20860;-67
2021/09/18 02:34:22;;;;;;;4.63;3.80;;;13.20;96.40;;;;;;5031970;28;20456;-67
2021/09/18 02:36:49;;;;;;;5.70;4.00;;;13.20;96.10;;;;;;5032645;28;20437;-67
2021/09/18 02:39:16;;;;;;;7.03;4.60;;;13.10;96.20;;;;;;5032529;28;20485;-67
2021/09/18 02:41:45;;;;;;;5.13;3.53;;;13.10;96.30;;;;;;5032630;28;20448;-67
2021/09/18 02:44:17;;;;;;;5.87;4.50;;;13.10;96.40;;;;;;5032315;28;20537;-67
2021/09/18 02:46:45;;;;;;;4.57;3.60;;;13.00;96.40;;;;;;5037308;28;20428;-67
2021/09/18 02:49:17;;;;;;;5.37;3.57;;;13.00;96.70;;;;;;5052577;28;20520;-67
2021/09/18 02:51:44;;;;;;;4.20;3.43;;;13.00;96.50;;;;;;5048777;28;20441;-67
2021/09/18 02:54:11;;;;;;;3.77;3.17;;;13.10;96.60;;;;;;5052607;28;20452;-67
2021/09/18 02:56:38;;;;;;;8.17;3.70;;;13.10;96.40;;;;;;5048669;28;20991;-67
2021/09/18 02:59:05;;;;;;;4.17;3.77;;;13.10;96.40;;;;;;5032716;28;20481;-67
2021/09/18 03:01:32;;;;;;;4.10;3.70;;;13.10;96.30;;;;;;5033598;28;20932;-68
2021/09/18 03:04:01;;;;;;;5.40;4.53;;;13.10;96.50;;;;;;5052404;28;20865;-67
2021/09/18 03:06:30;;;;;;;3.90;3.30;;;13.10;96.50;;;;;;5052071;28;20527;-67
2021/09/18 03:08:57;;;;;;;4.10;3.43;;;13.10;96.10;;;;;;5052684;28;20841;-67
2021/09/18 03:11:24;;;;;;;3.53;2.97;;;13.10;96.20;;;;;;5051808;28;20500;-67
2021/09/18 03:13:54;;;;;;;3.20;2.70;;;13.10;96.30;;;;;;5031869;28;20466;-67
2021/09/18 03:16:21;;;;;;;3.40;2.70;;;13.10;96.10;;;;;;5032082;28;20438;-70
2021/09/18 03:18:50;;;;;;;4.67;3.07;;;13.10;96.20;;;;;;5031791;28;20908;-67
2021/09/18 03:21:18;;;;;;;3.13;2.53;;;13.10;96.10;;;;;;5031969;28;20529;-68
2021/09/18 03:23:46;;;;;;;3.63;2.80;;;13.10;96.10;;;;;;5032059;28;20516;-67
2021/09/18 03:26:13;;;;;;;3.97;3.57;;;13.20;96.00;;;;;;5032154;28;20571;-67
2021/09/18 03:28:45;;;;;;;4.20;3.60;;;13.10;95.90;;;;;;5031949;28;20524;-67
2021/09/18 03:31:26;;;;;;;3.80;3.10;;;13.10;96.00;;;;;;5032177;28;20529;-68
2021/09/18 03:33:53;;;;;;;4.40;3.73;;;13.10;96.10;;;;;;5031978;28;20510;-68
2021/09/18 03:36:21;;;;;;;5.53;3.20;;;13.10;96.20;;;;;;5031880;28;20528;-67
2021/09/18 03:38:48;;;;;;;5.23;3.83;;;13.10;96.30;;;;;;5031623;28;20505;-67
2021/09/18 03:41:19;;;;;;;4.87;3.60;;;13.20;96.20;;;;;;5045399;28;20449;-66
2021/09/18 03:43:46;;;;;;;3.90;3.10;;;13.20;96.20;;;;;;5051763;28;20952;-67
2021/09/18 03:46:14;;;;;;;7.50;4.20;;;13.20;96.30;;;;;;5053989;28;20447;-66
2021/09/18 03:48:46;;;;;;;6.60;4.83;;;13.20;95.90;;;;;;5055866;28;20447;-67
2021/09/18 03:51:18;;;;;;;3.93;2.97;;;13.20;95.80;;;;;;5042143;28;20976;-67
2021/09/18 03:53:46;;;;;;;3.90;3.30;;;13.20;96.10;;;;;;5035938;28;20557;-67
2021/09/18 03:56:16;;;;;;;4.87;3.37;;;13.10;96.30;;;;;;5035703;28;20489;-67
2021/09/18 03:58:43;;;;;;;4.00;2.67;;;13.10;96.30;;;;;;5035630;28;21063;-67
2021/09/18 04:01:10;;;;;;;3.93;3.53;;;13.10;96.20;;;;;;5035399;28;20987;-67
2021/09/18 04:03:37;;;;;;;4.23;3.60;;;13.10;96.20;;;;;;5035939;28;20488;-67
2021/09/18 04:06:06;;;;;;;5.20;4.00;;;13.10;96.20;;;;;;5035466;28;20532;-67
2021/09/18 04:08:33;;;;;;;4.87;3.87;;;13.10;96.40;;;;;;5035994;28;20480;-68
2021/09/18 04:11:01;;;;;;;5.07;2.90;;;13.10;96.50;;;;;;5043481;28;20441;-66
2021/09/18 04:13:33;;;;;;;5.10;4.60;;;13.10;96.40;;;;;;5055747;28;20468;-67
2021/09/18 04:16:00;;;;;;;3.53;3.13;;;13.10;96.40;;;;;;5055402;28;20516;-67
2021/09/18 04:18:28;;;;;;;4.80;3.93;;;13.10;96.40;;;;;;5055298;28;21037;-67
2021/09/18 04:20:55;;;;;;;5.37;3.73;;;13.10;96.30;;;;;;5055055;28;20834;-67
2021/09/18 04:23:22;;;;;;;5.07;3.60;;;13.10;96.40;;;;;;5055522;28;20543;-67
2021/09/18 04:25:55;;;;;;;4.07;3.00;;;13.20;96.50;;;;;;5054956;28;20444;-67
2021/09/18 04:28:23;;;;;;;4.00;3.30;;;13.20;96.50;;;;;;5055609;28;20507;-67
2021/09/18 04:30:52;;;;;;;4.07;3.60;;;13.20;96.50;;;;;;5048767;28;20452;-67
2021/09/18 04:33:21;;;;;;;4.10;3.63;;;13.20;96.30;;;;;;5035539;28;20532;-67
2021/09/18 04:35:48;;;;;;;4.13;3.37;;;13.20;96.30;;;;;;5034973;28;20438;-67
2021/09/18 04:38:15;;;;;;;4.13;3.13;;;13.20;96.10;;;;;;5035064;28;20568;-67
2021/09/18 04:40:45;;;;;;;4.60;3.90;;;13.10;96.10;;;;;;5034886;28;21015;-67
2021/09/18 04:43:12;;;;;;;4.33;3.60;;;13.10;96.20;;;;;;5035393;28;20528;-67
2021/09/18 04:45:40;;;;;;;4.60;3.40;;;13.10;96.10;;;;;;5034876;28;20528;-67
2021/09/18 04:48:12;;;;;;;3.70;3.27;;;13.10;96.10;;;;;;5035203;28;20444;-67
2021/09/18 04:50:39;;;;;;;4.10;3.13;;;13.10;96.30;;;;;;5034766;28;20545;-67
2021/09/18 04:53:06;;;;;;;4.33;3.60;;;13.00;96.20;;;;;;5035056;28;20449;-67
2021/09/18 04:55:38;;;;;;;4.50;3.50;;;13.00;96.20;;;;;;5034381;28;20516;-67
2021/09/18 04:58:05;;;;;;;4.83;3.50;;;13.00;96.20;;;;;;5034838;28;20484;-67
2021/09/18 05:00:32;;;;;;;7.60;4.00;;;12.90;96.30;;;;;;5037766;28;20466;-68
2021/09/18 05:03:00;;;;;;;5.10;3.77;;;12.90;96.50;;;;;;5054880;28;20807;-66
2021/09/18 05:05:28;;;;;;;5.13;4.60;;;12.90;96.70;;;;;;5054018;28;20537;-67
2021/09/18 05:07:55;;;;;;;5.00;4.30;;;12.90;96.80;;;;;;5054596;28;20928;-67
2021/09/18 05:10:22;;;;;;;5.10;4.30;;;13.00;96.80;;;;;;5052323;28;20552;-69
2021/09/18 05:12:49;;;;;;;6.47;4.13;;;13.00;96.70;;;;;;5034399;28;20480;-68
2021/09/18 05:15:18;;;;;;;9.50;4.07;;;12.90;96.60;;;;;;5034640;28;20932;-67
2021/09/18 05:17:45;;;;;;;5.43;4.30;;;12.90;96.70;;;;;;5034448;28;20483;-67
2021/09/18 05:20:14;;;;;;;5.43;4.70;;;12.90;96.90;;;;;;5035851;28;20516;-67
2021/09/18 05:22:46;;;;;;;4.73;3.87;;;12.90;96.50;;;;;;5034235;28;20562;-68
2021/09/18 05:25:14;;;;;;;5.60;4.03;;;12.90;96.80;;;;;;5052663;28;20519;-67
2021/09/18 05:27:42;;;;;;;5.80;4.73;;;12.90;96.80;;;;;;5054255;28;20529;-66
2021/09/18 05:30:11;;;;;;;5.10;3.97;;;12.90;96.90;;;;;;5051323;28;20533;-67
2021/09/18 05:32:38;;;;;;;4.00;3.47;;;13.00;97.00;;;;;;5049453;28;20910;-66
2021/09/18 05:35:07;;;;;;;6.43;4.10;;;13.00;96.80;;;;;;5050970;28;20525;-66
2021/09/18 05:37:35;;;;;;;6.17;5.40;;;13.10;96.70;;;;;;5042479;28;20440;-67
2021/09/18 05:40:09;;;;;;;5.70;4.60;;;13.20;96.40;;;;;;5033468;28;20485;-66
2021/09/18 05:42:39;;;;;;;7.63;5.33;;;13.20;96.40;;;;;;5037226;28;20463;-66
2021/09/18 05:45:07;;;;;;;9.83;6.17;;;13.20;96.80;;;;;;5050398;28;20439;-66
2021/09/18 05:47:36;;;;;;;6.50;4.90;;;13.20;96.90;;;;;;5045446;28;20474;-66
2021/09/18 05:50:06;;;;;;;6.30;4.93;;;13.30;96.80;;;;;;5047319;28;20432;-67
2021/09/18 05:52:35;;;;;;;5.03;4.17;;;13.30;96.80;;;;;;5051578;28;20477;-67
2021/09/18 05:55:02;;;;;;;7.20;4.83;;;13.40;96.60;;;;;;5038119;28;20514;-67
2021/09/18 05:57:29;;;;;;;7.30;6.00;;;13.50;96.70;;;;;;5033332;28;20460;-66
2021/09/18 06:00:00;;;;;;;8.27;5.40;;;13.50;96.20;;;;;;5033311;28;20498;-66
2021/09/18 06:02:27;;;;;;;6.03;4.97;;;13.60;96.40;;;;;;5033266;28;20434;-66
2021/09/18 06:04:56;;;;;;;6.10;5.23;;;13.70;96.20;;;;;;5050169;28;20455;-67
2021/09/18 06:07:23;;;;;;;5.80;4.20;;;13.80;96.50;;;;;;5050313;28;20444;-67
2021/09/18 06:09:52;;;;;;;5.90;4.50;;;13.90;96.40;;;;;;5050630;28;20532;-66
2021/09/18 06:12:19;;;;;;;7.73;5.53;;;14.00;96.40;;;;;;5050591;28;20476;-66
2021/09/18 06:14:46;;;;;;;9.90;4.07;;;14.10;96.40;;;;;;5032936;28;20433;-66
2021/09/18 06:17:19;;;;;;;6.17;4.50;;;14.20;96.50;;;;;;5033021;28;20516;-66
2021/09/18 06:19:46;;;;;;;5.43;4.40;;;14.30;96.20;;;;;;5032666;28;20478;-66
2021/09/18 06:22:18;;;;;;;10.63;6.60;;;14.40;95.40;;;;;;5032944;28;20770;-66
2021/09/18 06:24:56;;;;;;;5.10;3.83;;;14.50;95.50;;;;;;5032803;28;20543;-66
2021/09/18 06:27:23;;;;;;;4.60;4.00;;;14.60;95.30;;;;;;5032617;28;20446;-66
2021/09/18 06:29:56;;;;;;;5.20;3.93;;;14.70;95.40;;;;;;5032729;28;20840;-66
2021/09/18 06:32:23;;;;;;;5.40;3.80;;;14.80;95.10;;;;;;5032656;28;21031;-66
2021/09/18 06:34:59;;;;;;;6.80;5.00;;;14.90;95.20;;;;;;5032558;28;20521;-66
2021/09/18 06:37:31;;;;;;;5.00;4.50;;;14.90;94.90;;;;;;5032597;28;20440;-65
2021/09/18 06:39:59;;;;;;;5.87;4.57;;;15.00;94.80;;;;;;5032388;28;21010;-66
2021/09/18 06:42:26;;;;;;;7.03;5.97;;;15.10;95.20;;;;;;5050106;28;20468;-66
2021/09/18 06:44:53;;;;;;;5.10;4.33;;;15.20;94.50;;;;;;5050195;28;20469;-66
2021/09/18 06:47:22;;;;;;;6.00;5.07;;;15.20;94.10;;;;;;5050186;28;20468;-66
2021/09/18 06:49:49;;;;;;;8.50;5.10;;;15.20;93.70;;;;;;5049604;28;20439;-67
2021/09/18 06:52:18;;;;;;;7.90;6.17;;;15.30;94.50;;;;;;5032187;28;20473;-66
2021/09/18 06:54:45;;;;;;;6.40;5.20;;;15.60;95.00;;;;;;5032484;28;20465;-67
2021/09/18 06:57:18;;;;;;;6.40;4.50;;;16.00;93.80;;;;;;5032350;28;20430;-67
2021/09/18 06:59:48;;;;;;;6.03;4.97;;;16.40;94.10;;;;;;5042244;28;20484;-67
2021/09/18 07:02:17;;;;;;;5.80;4.90;;;16.80;93.60;;;;;;5052835;28;20781;-68
2021/09/18 07:04:49;;;;;;;7.60;6.00;;;17.30;92.50;;;;;;5051620;28;20442;-67
2021/09/18 07:07:17;;;;;;;6.20;5.50;;;17.80;92.10;;;;;;5052682;28;20528;-67
2021/09/18 07:09:46;;;;;;;6.10;4.80;;;18.40;90.30;;;;;;5033830;28;20438;-67
2021/09/18 07:12:20;;;;;;;7.07;5.80;;;19.00;89.50;;;;;;5032665;28;20452;-68
2021/09/18 07:14:47;;;;;;;6.63;4.43;;;19.80;88.50;;;;;;5050612;28;20440;-67
2021/09/18 07:17:19;;;;;;;5.77;4.37;;;20.80;85.80;;;;;;5052435;28;20800;-67
2021/09/18 07:19:48;;;;;;;6.70;4.37;;;22.30;80.30;;;;;;5033853;28;20488;-67
2021/09/18 07:22:20;;;;;;;6.73;4.47;;;24.50;76.10;;;;;;5032549;28;20438;-67
2021/09/18 07:24:48;;;;;;;4.70;3.97;;;26.50;67.30;;;;;;5048965;28;20939;-67
2021/09/18 07:27:21;;;;;;;6.83;4.53;;;28.20;59.60;;;;;;5052491;28;20439;-67
2021/09/18 07:29:51;;;;;;;5.87;4.87;;;29.90;53.30;;;;;;5050661;28;20435;-68
2021/09/18 07:32:18;;;;;;;5.83;4.90;;;31.40;48.00;;;;;;5052217;28;20475;-68
2021/09/18 07:34:46;;;;;;;6.20;5.00;;;32.80;43.30;;;;;;5036145;28;20457;-69
2021/09/18 07:37:16;;;;;;;4.47;4.07;;;34.00;40.50;;;;;;5031448;28;20984;-69
2021/09/18 07:39:43;;;;;;;5.10;4.60;;;35.00;38.20;;;;;;5032105;28;20491;-67
2021/09/18 07:42:15;;;;;;;7.33;4.60;;;36.20;36.80;;;;;;5031742;28;20771;-67
2021/09/18 07:44:43;;;;;;;6.30;4.80;;;37.10;30.60;;;;;;5033275;28;20859;-67
2021/09/18 07:47:10;;;;;;;6.37;4.47;;;37.80;29.90;;;;;;5032534;28;20481;-67
2021/09/18 07:49:39;;;;;;;5.60;5.10;;;38.40;28.10;;;;;;5032503;28;20430;-67
2021/09/18 07:52:11;;;;;;;5.20;4.70;;;39.30;27.90;;;;;;5033260;28;20489;-67
2021/09/18 07:54:38;;;;;;;6.03;4.90;;;40.10;25.30;;;;;;5032029;28;20516;-67
2021/09/18 07:57:05;;;;;;;4.77;3.53;;;40.60;24.70;;;;;;5034321;28;20493;-67
2021/09/18 07:59:34;;;;;;;4.43;3.60;;;41.30;23.40;;;;;;5047585;28;20484;-67
2021/09/18 08:02:04;;;;;;;4.67;3.70;;;41.80;24.10;;;;;;5032282;28;20533;-67
2021/09/18 08:04:33;;;;;;;4.07;3.67;;;42.60;22.40;;;;;;5036368;28;20524;-67
2021/09/18 08:07:02;;;;;;;6.47;3.87;;;43.10;21.70;;;;;;5035905;28;20446;-67
2021/09/18 08:09:35;;;;;;;4.60;4.00;;;43.60;20.80;;;;;;5037644;28;20434;-67
2021/09/18 08:12:10;;;;;;;4.60;4.20;;;44.20;20.00;;;;;;5030232;28;20981;-68
2021/09/18 08:14:37;;;;;;;5.10;3.40;;;44.70;20.30;;;;;;5040797;28;20787;-67
2021/09/18 08:17:09;;;;;;;4.33;3.43;;;45.30;19.70;;;;;;5031148;28;20438;-70
2021/09/18 08:19:36;;;;;;;3.90;3.50;;;45.80;19.30;;;;;;5034488;28;20481;-68
2021/09/18 08:22:03;;;;;;;4.17;3.60;;;46.30;18.70;;;;;;5048189;28;20775;-68
2021/09/18 08:24:30;;;;;;;3.83;3.43;;;46.70;17.50;;;;;;5042000;28;20945;-68
2021/09/18 08:26:59;;;;;;;3.40;2.83;;;47.20;17.00;;;;;;5031594;28;20525;-68
2021/09/18 08:29:28;;;;;;;3.60;3.27;;;47.50;16.80;;;;;;5031440;28;20538;-68
2021/09/18 08:32:00;;;;;;;3.57;3.27;;;47.90;16.70;;;;;;5033500;28;20464;-67
2021/09/18 08:34:28;;;;;;;4.03;3.20;;;48.30;16.70;;;;;;5035145;28;20481;-67
2021/09/18 08:36:57;;;;;;;3.90;3.60;;;48.80;15.50;;;;;;5038038;28;20490;-67
2021/09/18 08:39:24;;;;;;;3.87;3.30;;;48.90;14.90;;;;;;5047553;28;20481;-70
2021/09/18 08:41:52;;;;;;;3.00;2.70;;;49.10;15.20;;;;;;5037670;28;21015;-67
2021/09/18 08:44:20;;;;;;;4.00;3.30;;;49.30;15.20;;;;;;5048133;28;20551;-68
2021/09/18 08:46:49;;;;;;;7.77;3.70;;;49.60;14.50;;;;;;5048649;28;20520;-67
2021/09/18 08:49:22;;;;;;;4.00;2.80;;;50.00;14.70;;;;;;5033985;28;20457;-68
2021/09/18 08:51:51;;;;;;;4.03;3.37;;;50.40;13.80;;;;;;5034041;28;20429;-69
2021/09/18 08:54:18;;;;;;;3.63;3.10;;;50.70;13.90;;;;;;5033908;28;20445;-67
2021/09/18 08:56:45;;;;;;;3.50;3.20;;;50.80;13.70;;;;;;5047404;28;20540;-68
2021/09/18 08:59:17;;;;;;;3.70;3.20;;;51.30;13.80;;;;;;5051008;28;20437;-68
2021/09/18 09:01:44;;;;;;;4.30;3.50;;;51.80;13.00;;;;;;5033955;28;20495;-67
2021/09/18 09:04:11;;;;;;;3.63;3.33;;;52.30;13.20;;;;;;5034513;28;20558;-68
2021/09/18 09:06:50;;;;;;;2.97;2.67;;;52.70;12.70;;;;;;5033395;28;20532;-68
2021/09/18 09:09:18;;;;;;;2.43;2.20;;;53.10;12.40;;;;;;5034369;28;20813;-68
2021/09/18 09:11:49;;;;;;;3.20;2.90;;;53.30;11.80;;;;;;5032747;28;20441;-67
2021/09/18 09:14:16;;;;;;;3.27;2.20;;;53.60;11.10;;;;;;5034491;28;20445;-67
2021/09/18 09:16:57;;;;;;;3.00;2.30;;;53.80;10.20;;;;;;5034319;28;20529;-70
2021/09/18 09:19:29;;;;;;;4.07;2.80;;;54.00;10.70;;;;;;5033215;28;20462;-67
2021/09/18 09:22:01;;;;;;;3.50;2.37;;;54.20;10.80;;;;;;5034249;28;20516;-67
2021/09/18 09:24:30;;;;;;;3.10;2.60;;;54.50;10.30;;;;;;5034161;28;20835;-68
2021/09/18 09:27:09;;;;;;;3.10;2.80;;;54.70;10.20;;;;;;5034373;28;20442;-68
2021/09/18 09:29:44;;;;;;;3.30;2.87;;;54.70;9.60;;;;;;5034481;28;20434;-67
2021/09/18 09:32:28;;;;;;;4.27;2.60;;;54.80;10.20;;;;;;5033981;28;20452;-67
2021/09/18 09:34:57;;;;;;;3.33;2.70;;;54.90;9.30;;;;;;5033674;28;20476;-68
2021/09/18 09:37:29;;;;;;;4.33;2.60;;;54.90;9.70;;;;;;5033921;28;20499;-67
2021/09/18 09:40:02;;;;;;;3.80;2.30;;;55.20;9.90;;;;;;5034278;28;20522;-68
2021/09/18 09:42:31;;;;;;;2.90;2.30;;;55.50;9.60;;;;;;5032735;28;20793;-68
2021/09/18 09:45:11;;;;;;;2.83;2.60;;;55.80;9.50;;;;;;5039755;28;20444;-68
2021/09/18 09:47:38;;;;;;;3.10;2.20;;;56.20;9.00;;;;;;5033759;28;20451;-68
2021/09/18 09:50:06;;;;;;;3.50;2.43;;;56.20;9.00;;;;;;5032699;28;20909;-69
2021/09/18 09:52:35;;;;;;;2.50;2.20;;;56.30;9.20;;;;;;5048531;28;20864;-69
2021/09/18 09:55:10;;;;;;;2.67;2.47;;;56.60;9.00;;;;;;5049276;28;20446;-69
2021/09/18 09:57:37;;;;;;;2.90;2.23;;;56.90;9.20;;;;;;5043134;28;20519;-68
2021/09/18 10:00:07;;;;;;;2.40;2.20;;;57.10;8.80;;;;;;5032391;28;20520;-68
2021/09/18 10:02:36;;;;;;;2.40;1.97;;;57.10;8.70;;;;;;5032985;28;20442;-68
2021/09/18 10:05:05;;;;;;;5.53;5.13;;;57.00;9.00;;;;;;5032795;28;20528;-68
2021/09/18 10:07:34;;;;;;;5.50;2.30;;;57.10;8.90;;;;;;5032690;28;20447;-69
2021/09/18 10:10:01;;;;;;;2.60;2.20;;;57.20;8.40;;;;;;5032771;28;20478;-68
2021/09/18 10:12:32;;;;;;;3.03;2.30;;;57.50;8.70;;;;;;5034100;28;20535;-68
2021/09/18 10:15:07;;;;;;;2.10;1.83;;;57.50;9.00;;;;;;5036541;28;20524;-68
2021/09/18 10:17:37;;;;;;;3.13;1.90;;;57.70;8.60;;;;;;5045011;28;20444;-69
2021/09/18 10:20:07;;;;;;;2.60;1.80;;;58.00;8.80;;;;;;5031875;28;20512;-68
2021/09/18 10:25:23;;;;;;;2.33;2.03;;;58.60;8.10;;;;;;5049594;28;20717;-68
2021/09/18 10:28:08;;;;;;;3.00;1.50;;;58.80;8.30;;;;;;5040855;28;20464;-68
2021/09/18 10:30:37;;;;;;;2.73;2.10;;;58.90;8.10;;;;;;5040569;28;20915;-69
2021/09/18 10:33:05;;;;;;;3.80;2.40;;;59.00;8.20;;;;;;5043909;28;20918;-68
2021/09/18 10:35:33;;;;;;;2.37;2.00;;;59.00;7.90;;;;;;5037466;28;20437;-68
2021/09/18 10:38:20;;;;;;;2.10;1.60;;;59.00;7.10;;;;;;5039908;28;20448;-69
2021/09/18 10:40:58;;;;;;;2.70;1.40;;;58.10;6.80;;;;;;5038615;28;20879;-69
2021/09/18 10:43:28;;;;;;;2.00;1.53;;;57.80;7.70;;;;;;5038902;28;20531;-68
2021/09/18 10:45:58;;;;;;;2.70;1.83;;;58.20;8.30;;;;;;5034684;28;20440;-68
2021/09/18 10:48:42;;;;;;;2.23;1.40;;;58.60;8.60;;;;;;5042489;28;20437;-68
2021/09/18 10:51:39;;;;;;;2.50;1.47;;;58.80;7.60;;;;;;5037935;28;20509;-68
2021/09/18 10:54:12;;;;;;;1.60;1.00;;;58.90;7.80;;;;;;5040662;28;20433;-68
2021/09/18 10:57:02;;;;;;;2.10;1.70;;;59.00;7.70;;;;;;5040256;28;20532;-69
2021/09/18 10:59:51;;;;;;;1.97;1.30;;;59.20;7.00;;;;;;5039311;28;20527;-68
2021/09/18 11:02:48;;;;;;;2.23;1.10;;;59.50;7.40;;;;;;5038460;28;20539;-68
2021/09/18 11:05:45;;;;;;;2.90;1.30;;;59.90;6.80;;;;;;5032234;28;20477;-68
2021/09/18 11:08:35;;;;;;;3.70;2.20;;;60.40;6.30;;;;;;5041354;28;20447;-68
2021/09/18 11:11:06;;;;;;;3.27;1.60;;;60.40;6.60;;;;;;5040734;28;20481;-68
2021/09/18 11:13:38;;;;;;;1.70;1.30;;;60.40;6.20;;;;;;5039966;28;20528;-69
2021/09/18 11:16:20;;;;;;;1.97;1.40;;;60.10;6.40;;;;;;5039566;28;20516;-68
2021/09/18 11:18:54;;;;;;;2.70;1.57;;;60.00;6.60;;;;;;5039964;28;20479;-69
2021/09/18 11:21:24;;;;;;;3.60;1.97;;;60.10;6.70;;;;;;5038601;28;20845;-68
2021/09/18 11:23:53;;;;;;;2.20;1.80;;;60.00;6.30;;;;;;5040287;28;20440;-69
2021/09/18 11:26:32;;;;;;;2.60;1.73;;;60.10;6.80;;;;;;5037850;28;20442;-68
2021/09/18 11:29:10;;;;;;;3.07;1.33;;;60.20;6.20;;;;;;5038582;28;20410;-68
2021/09/18 11:31:40;;;;;;;1.80;1.30;;;60.00;6.60;;;;;;5040226;28;20508;-68
2021/09/18 11:34:08;;;;;;;1.87;1.20;;;59.60;6.00;;;;;;5044727;28;20989;-68
2021/09/18 11:36:45;;;;;;;2.10;1.40;;;59.60;6.60;;;;;;5035085;28;20440;-68
2021/09/18 11:39:13;;;;;;;2.13;1.57;;;59.80;6.60;;;;;;5041866;28;20527;-68
2021/09/18 11:41:40;;;;;;;2.03;1.40;;;59.70;6.50;;;;;;5040618;28;20985;-68
2021/09/18 11:44:16;;;;;;;2.30;1.40;;;59.80;6.70;;;;;;5039250;28;20509;-68
2021/09/18 11:46:48;;;;;;;2.20;1.70;;;59.60;6.60;;;;;;5039250;28;20525;-68
2021/09/18 11:49:30;;;;;;;2.73;1.60;;;59.70;6.50;;;;;;5034726;28;20911;-67
2021/09/18 11:52:00;;;;;;;2.50;1.53;;;59.80;6.90;;;;;;5041667;28;20479;-68
2021/09/18 11:54:27;;;;;;;3.13;1.67;;;59.70;6.70;;;;;;5035124;28;20445;-68
2021/09/18 11:56:54;;;;;;;2.00;1.30;;;59.60;7.00;;;;;;5049207;28;20778;-68
2021/09/18 11:59:21;;;;;;;2.27;1.47;;;59.50;6.80;;;;;;5041841;28;20436;-68
2021/09/18 12:01:50;;;;;;;2.00;1.50;;;59.50;6.50;;;;;;5043892;28;20467;-68
2021/09/18 12:04:17;;;;;;;3.00;1.70;;;59.40;7.10;;;;;;5035576;28;20452;-68
2021/09/18 12:06:45;;;;;;;2.50;1.50;;;59.20;6.60;;;;;;5035590;28;20527;-68
2021/09/18 12:09:17;;;;;;;2.53;1.63;;;57.50;5.90;;;;;;5055459;28;20437;-67
2021/09/18 12:11:45;;;;;;;2.87;1.50;;;54.20;7.30;;;;;;5056386;28;20526;-68
2021/09/18 12:14:12;;;;;;;2.33;1.93;;;54.10;8.50;;;;;;5056347;28;20436;-68
2021/09/18 12:16:40;;;;;;;2.73;1.30;;;54.50;8.40;;;;;;5056285;28;20532;-68
2021/09/18 12:19:08;;;;;;;2.50;1.60;;;54.90;7.90;;;;;;5055754;28;20464;-68
2021/09/18 12:21:39;;;;;;;2.13;1.80;;;54.80;8.00;;;;;;5055983;28;20947;-68
2021/09/18 12:24:08;;;;;;;2.87;1.60;;;55.00;8.10;;;;;;5056203;28;20494;-68
2021/09/18 12:26:37;;;;;;;3.17;1.50;;;55.00;7.80;;;;;;5055945;28;20464;-67
2021/09/18 12:29:09;;;;;;;2.60;1.70;;;54.90;8.40;;;;;;5055740;28;20448;-68
2021/09/18 12:31:37;;;;;;;2.17;1.50;;;54.60;8.60;;;;;;5055542;28;20991;-68
2021/09/18 12:34:10;;;;;;;1.87;1.30;;;54.40;8.60;;;;;;5056231;28;20437;-69
2021/09/18 12:36:37;;;;;;;1.90;1.30;;;54.20;8.10;;;;;;5055759;28;20935;-68
2021/09/18 12:39:06;;;;;;;2.00;1.10;;;53.70;8.90;;;;;;5055595;28;20440;-67
2021/09/18 12:41:35;;;;;;;2.70;1.67;;;53.20;8.90;;;;;;5056110;28;20448;-67
2021/09/18 12:44:04;;;;;;;2.87;1.40;;;52.70;8.90;;;;;;5055606;28;20503;-67
2021/09/18 12:46:38;;;;;;;1.80;1.37;;;52.50;9.80;;;;;;5055355;28;20950;-67
2021/09/18 12:49:05;;;;;;;2.37;1.40;;;52.30;9.10;;;;;;5055740;28;20523;-68
2021/09/18 12:51:37;;;;;;;2.30;1.57;;;51.80;9.20;;;;;;5055208;28;21065;-67
2021/09/18 12:54:05;;;;;;;2.50;1.50;;;50.80;9.40;;;;;;5055648;28;20507;-68
2021/09/18 12:56:35;;;;;;;2.00;1.30;;;49.50;10.20;;;;;;5055189;28;20523;-67
2021/09/18 12:59:23;;;;;;;3.50;1.57;;;48.10;9.90;;;;;;5055719;28;20450;-67
2021/09/18 13:02:00;;;;;;;2.43;1.60;;;46.60;10.70;;;;;;5055469;28;20472;-67
2021/09/18 13:04:30;;;;;;;2.83;1.50;;;44.90;11.70;;;;;;5055053;28;20899;-67